sensor_id;sensor_type;location;lat;lon;timestamp;P1;durP1;ratioP1;P2;durP2;ratioP2
23362;SDS011;11853;48.080;11.960;2022-11-15T00:00:50;9.65;;;6.80;;
23362;SDS011;11853;48.080;11.960;2022-11-15T00:03:20;8.85;;;7.93;;
23362;SDS011;11853;48.080;11.960;2022-11-15T00:05:48;8.52;;;6.95;;
23362;SDS011;11853;48.080;11.960;2022-11-15T00:08:14;8.27;;;7.47;;
23362;SDS011;11853;48.080;11.960;2022-11-15T00:10:40;10.55;;;7.45;;
23362;SDS011;11853;48.080;11.960;2022-11-15T00:13:15;8.00;;;7.20;;
23362;SDS011;11853;48.080;11.960;2022-11-15T00:15:41;7.78;;;6.97;;
23362;SDS011;11853;48.080;11.960;2022-11-15T00:18:11;7.72;;;7.00;;
23362;SDS011;11853;48.080;11.960;2022-11-15T00:20:38;8.00;;;7.20;;
23362;SDS011;11853;48.080;11.960;2022-11-15T00:23:04;8.38;;;7.30;;
23362;SDS011;11853;48.080;11.960;2022-11-15T00:25:30;8.50;;;7.60;;
23362;SDS011;11853;48.080;11.960;2022-11-15T00:27:56;8.75;;;7.85;;
23362;SDS011;11853;48.080;11.960;2022-11-15T00:30:23;8.40;;;7.55;;
23362;SDS011;11853;48.080;11.960;2022-11-15T00:32:49;8.88;;;7.03;;
23362;SDS011;11853;48.080;11.960;2022-11-15T00:35:15;7.13;;;6.43;;
23362;SDS011;11853;48.080;11.960;2022-11-15T00:37:41;8.38;;;7.47;;
23362;SDS011;11853;48.080;11.960;2022-11-15T00:40:07;7.25;;;6.22;;
23362;SDS011;11853;48.080;11.960;2022-11-15T00:42:33;7.22;;;6.47;;
23362;SDS011;11853;48.080;11.960;2022-11-15T00:44:59;7.28;;;6.20;;
23362;SDS011;11853;48.080;11.960;2022-11-15T00:47:24;6.90;;;6.20;;
23362;SDS011;11853;48.080;11.960;2022-11-15T00:49:50;7.80;;;6.20;;
23362;SDS011;11853;48.080;11.960;2022-11-15T00:52:16;6.25;;;5.60;;
23362;SDS011;11853;48.080;11.960;2022-11-15T00:54:41;9.10;;;6.80;;
23362;SDS011;11853;48.080;11.960;2022-11-15T00:57:07;10.02;;;8.25;;
23362;SDS011;11853;48.080;11.960;2022-11-15T00:59:32;8.20;;;7.35;;
23362;SDS011;11853;48.080;11.960;2022-11-15T01:01:58;8.70;;;6.85;;
23362;SDS011;11853;48.080;11.960;2022-11-15T01:04:23;7.00;;;6.30;;
23362;SDS011;11853;48.080;11.960;2022-11-15T01:06:49;6.28;;;5.68;;
23362;SDS011;11853;48.080;11.960;2022-11-15T01:09:14;5.72;;;5.22;;
23362;SDS011;11853;48.080;11.960;2022-11-15T01:11:40;6.50;;;5.55;;
23362;SDS011;11853;48.080;11.960;2022-11-15T01:14:06;5.65;;;5.15;;
23362;SDS011;11853;48.080;11.960;2022-11-15T01:16:31;5.55;;;4.75;;
23362;SDS011;11853;48.080;11.960;2022-11-15T01:18:58;6.22;;;5.03;;
23362;SDS011;11853;48.080;11.960;2022-11-15T01:21:24;5.68;;;4.97;;
23362;SDS011;11853;48.080;11.960;2022-11-15T01:23:53;5.18;;;4.63;;
23362;SDS011;11853;48.080;11.960;2022-11-15T01:26:20;5.22;;;4.50;;
23362;SDS011;11853;48.080;11.960;2022-11-15T01:28:47;6.47;;;5.32;;
23362;SDS011;11853;48.080;11.960;2022-11-15T01:31:14;5.30;;;4.80;;
23362;SDS011;11853;48.080;11.960;2022-11-15T01:33:43;5.28;;;4.50;;
23362;SDS011;11853;48.080;11.960;2022-11-15T01:36:15;5.15;;;4.72;;
23362;SDS011;11853;48.080;11.960;2022-11-15T01:38:43;5.78;;;4.93;;
23362;SDS011;11853;48.080;11.960;2022-11-15T01:41:19;5.50;;;4.70;;
23362;SDS011;11853;48.080;11.960;2022-11-15T01:47:06;5.78;;;5.00;;
23362;SDS011;11853;48.080;11.960;2022-11-15T01:52:17;5.60;;;4.60;;
23362;SDS011;11853;48.080;11.960;2022-11-15T01:54:47;7.60;;;5.13;;
23362;SDS011;11853;48.080;11.960;2022-11-15T01:57:15;5.00;;;4.50;;
23362;SDS011;11853;48.080;11.960;2022-11-15T01:59:42;4.55;;;4.15;;
23362;SDS011;11853;48.080;11.960;2022-11-15T02:02:10;4.75;;;4.35;;
23362;SDS011;11853;48.080;11.960;2022-11-15T02:04:40;5.38;;;4.72;;
23362;SDS011;11853;48.080;11.960;2022-11-15T02:07:08;5.07;;;4.20;;
23362;SDS011;11853;48.080;11.960;2022-11-15T02:09:37;6.45;;;4.32;;
23362;SDS011;11853;48.080;11.960;2022-11-15T02:12:03;4.95;;;4.47;;
23362;SDS011;11853;48.080;11.960;2022-11-15T02:14:30;5.00;;;4.38;;
23362;SDS011;11853;48.080;11.960;2022-11-15T02:17:13;4.95;;;4.47;;
23362;SDS011;11853;48.080;11.960;2022-11-15T02:31:19;4.75;;;4.25;;
23362;SDS011;11853;48.080;11.960;2022-11-15T02:37:07;4.05;;;3.65;;
23362;SDS011;11853;48.080;11.960;2022-11-15T02:40:07;5.30;;;4.50;;
23362;SDS011;11853;48.080;11.960;2022-11-15T02:42:40;4.68;;;3.90;;
23362;SDS011;11853;48.080;11.960;2022-11-15T02:45:41;4.85;;;4.30;;
23362;SDS011;11853;48.080;11.960;2022-11-15T02:48:13;6.15;;;4.20;;
23362;SDS011;11853;48.080;11.960;2022-11-15T02:50:40;5.50;;;4.18;;
23362;SDS011;11853;48.080;11.960;2022-11-15T02:53:07;4.30;;;3.90;;
23362;SDS011;11853;48.080;11.960;2022-11-15T02:55:37;4.38;;;4.07;;
23362;SDS011;11853;48.080;11.960;2022-11-15T02:58:23;4.10;;;3.63;;
23362;SDS011;11853;48.080;11.960;2022-11-15T03:01:24;4.28;;;3.88;;
23362;SDS011;11853;48.080;11.960;2022-11-15T03:11:46;4.20;;;3.80;;
23362;SDS011;11853;48.080;11.960;2022-11-15T03:14:28;4.50;;;4.00;;
23362;SDS011;11853;48.080;11.960;2022-11-15T03:19:47;4.35;;;3.95;;
23362;SDS011;11853;48.080;11.960;2022-11-15T03:22:25;4.93;;;4.20;;
23362;SDS011;11853;48.080;11.960;2022-11-15T03:24:55;4.75;;;4.32;;
23362;SDS011;11853;48.080;11.960;2022-11-15T03:27:25;4.72;;;4.30;;
23362;SDS011;11853;48.080;11.960;2022-11-15T03:29:57;4.00;;;3.65;;
23362;SDS011;11853;48.080;11.960;2022-11-15T03:32:28;4.15;;;3.80;;
23362;SDS011;11853;48.080;11.960;2022-11-15T03:35:06;4.80;;;4.40;;
23362;SDS011;11853;48.080;11.960;2022-11-15T03:37:37;5.03;;;4.53;;
23362;SDS011;11853;48.080;11.960;2022-11-15T03:40:14;5.97;;;4.50;;
23362;SDS011;11853;48.080;11.960;2022-11-15T03:50:24;4.93;;;4.43;;
23362;SDS011;11853;48.080;11.960;2022-11-15T03:52:50;4.90;;;4.40;;
23362;SDS011;11853;48.080;11.960;2022-11-15T03:55:19;5.63;;;4.40;;
23362;SDS011;11853;48.080;11.960;2022-11-15T03:57:47;4.90;;;4.47;;
23362;SDS011;11853;48.080;11.960;2022-11-15T04:00:16;5.88;;;4.55;;
23362;SDS011;11853;48.080;11.960;2022-11-15T04:02:42;6.93;;;4.65;;
23362;SDS011;11853;48.080;11.960;2022-11-15T04:05:08;4.55;;;4.15;;
23362;SDS011;11853;48.080;11.960;2022-11-15T04:07:34;5.38;;;4.43;;
23362;SDS011;11853;48.080;11.960;2022-11-15T04:09:59;4.53;;;4.00;;
23362;SDS011;11853;48.080;11.960;2022-11-15T04:12:29;4.20;;;3.80;;
23362;SDS011;11853;48.080;11.960;2022-11-15T04:14:56;4.65;;;4.25;;
23362;SDS011;11853;48.080;11.960;2022-11-15T04:17:44;4.57;;;4.18;;
23362;SDS011;11853;48.080;11.960;2022-11-15T04:20:16;4.50;;;4.10;;
23362;SDS011;11853;48.080;11.960;2022-11-15T04:23:03;4.93;;;4.00;;
23362;SDS011;11853;48.080;11.960;2022-11-15T04:25:54;4.50;;;4.10;;
23362;SDS011;11853;48.080;11.960;2022-11-15T04:28:21;4.32;;;4.03;;
23362;SDS011;11853;48.080;11.960;2022-11-15T04:30:47;4.15;;;3.65;;
23362;SDS011;11853;48.080;11.960;2022-11-15T04:33:13;4.40;;;4.00;;
23362;SDS011;11853;48.080;11.960;2022-11-15T04:35:39;3.95;;;3.60;;
23362;SDS011;11853;48.080;11.960;2022-11-15T04:38:05;4.75;;;4.32;;
23362;SDS011;11853;48.080;11.960;2022-11-15T04:40:32;4.85;;;4.35;;
23362;SDS011;11853;48.080;11.960;2022-11-15T04:42:58;3.92;;;3.53;;
23362;SDS011;11853;48.080;11.960;2022-11-15T04:45:23;3.78;;;3.47;;
23362;SDS011;11853;48.080;11.960;2022-11-15T04:47:49;4.35;;;3.90;;
23362;SDS011;11853;48.080;11.960;2022-11-15T04:50:15;4.20;;;3.75;;
23362;SDS011;11853;48.080;11.960;2022-11-15T04:52:42;4.63;;;4.18;;
23362;SDS011;11853;48.080;11.960;2022-11-15T04:55:14;4.47;;;4.07;;
23362;SDS011;11853;48.080;11.960;2022-11-15T04:57:40;4.30;;;3.90;;
23362;SDS011;11853;48.080;11.960;2022-11-15T05:00:07;6.13;;;4.40;;
23362;SDS011;11853;48.080;11.960;2022-11-15T05:02:35;4.82;;;3.83;;
23362;SDS011;11853;48.080;11.960;2022-11-15T05:05:19;4.63;;;3.90;;
23362;SDS011;11853;48.080;11.960;2022-11-15T05:07:45;5.38;;;4.75;;
23362;SDS011;11853;48.080;11.960;2022-11-15T05:10:10;4.65;;;3.95;;
23362;SDS011;11853;48.080;11.960;2022-11-15T05:12:36;5.22;;;4.72;;
23362;SDS011;11853;48.080;11.960;2022-11-15T05:15:02;7.47;;;3.97;;
23362;SDS011;11853;48.080;11.960;2022-11-15T05:17:28;4.00;;;3.60;;
23362;SDS011;11853;48.080;11.960;2022-11-15T05:19:54;3.78;;;3.20;;
23362;SDS011;11853;48.080;11.960;2022-11-15T05:22:20;3.97;;;3.50;;
23362;SDS011;11853;48.080;11.960;2022-11-15T05:24:46;3.67;;;3.38;;
23362;SDS011;11853;48.080;11.960;2022-11-15T05:27:11;4.10;;;3.75;;
23362;SDS011;11853;48.080;11.960;2022-11-15T05:29:37;4.05;;;3.65;;
23362;SDS011;11853;48.080;11.960;2022-11-15T05:32:06;4.13;;;3.72;;
23362;SDS011;11853;48.080;11.960;2022-11-15T05:34:33;3.95;;;3.42;;
23362;SDS011;11853;48.080;11.960;2022-11-15T05:37:00;5.95;;;4.03;;
23362;SDS011;11853;48.080;11.960;2022-11-15T05:39:25;4.55;;;3.70;;
23362;SDS011;11853;48.080;11.960;2022-11-15T05:42:01;3.72;;;3.33;;
23362;SDS011;11853;48.080;11.960;2022-11-15T05:44:34;4.60;;;3.58;;
23362;SDS011;11853;48.080;11.960;2022-11-15T05:47:01;3.65;;;3.35;;
23362;SDS011;11853;48.080;11.960;2022-11-15T05:49:30;3.88;;;3.58;;
23362;SDS011;11853;48.080;11.960;2022-11-15T05:51:59;4.20;;;3.80;;
23362;SDS011;11853;48.080;11.960;2022-11-15T05:54:25;4.40;;;3.85;;
23362;SDS011;11853;48.080;11.960;2022-11-15T05:56:51;4.47;;;4.07;;
23362;SDS011;11853;48.080;11.960;2022-11-15T05:59:17;4.82;;;3.88;;
23362;SDS011;11853;48.080;11.960;2022-11-15T06:01:44;3.90;;;3.60;;
23362;SDS011;11853;48.080;11.960;2022-11-15T06:04:09;4.00;;;3.70;;
23362;SDS011;11853;48.080;11.960;2022-11-15T06:06:35;4.00;;;3.70;;
23362;SDS011;11853;48.080;11.960;2022-11-15T06:09:00;4.25;;;3.85;;
23362;SDS011;11853;48.080;11.960;2022-11-15T06:11:26;5.38;;;3.78;;
23362;SDS011;11853;48.080;11.960;2022-11-15T06:13:51;3.50;;;3.20;;
23362;SDS011;11853;48.080;11.960;2022-11-15T06:16:17;4.65;;;3.92;;
23362;SDS011;11853;48.080;11.960;2022-11-15T06:18:43;4.32;;;3.92;;
23362;SDS011;11853;48.080;11.960;2022-11-15T06:21:08;4.53;;;4.13;;
23362;SDS011;11853;48.080;11.960;2022-11-15T06:23:34;4.38;;;3.97;;
23362;SDS011;11853;48.080;11.960;2022-11-15T06:26:00;4.82;;;4.25;;
23362;SDS011;11853;48.080;11.960;2022-11-15T06:28:28;8.95;;;4.32;;
23362;SDS011;11853;48.080;11.960;2022-11-15T06:31:01;4.63;;;4.20;;
23362;SDS011;11853;48.080;11.960;2022-11-15T06:33:28;5.18;;;4.07;;
23362;SDS011;11853;48.080;11.960;2022-11-15T06:35:54;4.82;;;4.18;;
23362;SDS011;11853;48.080;11.960;2022-11-15T06:38:20;4.70;;;4.25;;
23362;SDS011;11853;48.080;11.960;2022-11-15T06:40:45;4.85;;;4.30;;
23362;SDS011;11853;48.080;11.960;2022-11-15T06:43:11;7.88;;;3.58;;
23362;SDS011;11853;48.080;11.960;2022-11-15T06:45:36;8.25;;;6.25;;
23362;SDS011;11853;48.080;11.960;2022-11-15T06:48:02;17.67;;;5.47;;
23362;SDS011;11853;48.080;11.960;2022-11-15T06:50:28;8.80;;;4.32;;
23362;SDS011;11853;48.080;11.960;2022-11-15T06:52:53;4.78;;;3.88;;
23362;SDS011;11853;48.080;11.960;2022-11-15T06:55:19;6.15;;;4.68;;
23362;SDS011;11853;48.080;11.960;2022-11-15T06:57:49;5.55;;;5.05;;
23362;SDS011;11853;48.080;11.960;2022-11-15T07:00:16;4.40;;;4.00;;
23362;SDS011;11853;48.080;11.960;2022-11-15T07:02:44;4.47;;;4.07;;
23362;SDS011;11853;48.080;11.960;2022-11-15T07:05:09;7.82;;;5.13;;
23362;SDS011;11853;48.080;11.960;2022-11-15T07:07:36;5.65;;;4.55;;
23362;SDS011;11853;48.080;11.960;2022-11-15T07:10:01;6.25;;;5.65;;
23362;SDS011;11853;48.080;11.960;2022-11-15T07:12:27;5.05;;;4.65;;
23362;SDS011;11853;48.080;11.960;2022-11-15T07:14:53;4.57;;;4.18;;
23362;SDS011;11853;48.080;11.960;2022-11-15T07:17:18;4.38;;;3.67;;
23362;SDS011;11853;48.080;11.960;2022-11-15T07:19:44;3.90;;;3.60;;
23362;SDS011;11853;48.080;11.960;2022-11-15T07:22:10;4.55;;;4.15;;
23362;SDS011;11853;48.080;11.960;2022-11-15T07:24:35;7.13;;;4.10;;
23362;SDS011;11853;48.080;11.960;2022-11-15T07:27:01;20.30;;;6.93;;
23362;SDS011;11853;48.080;11.960;2022-11-15T07:29:26;7.78;;;4.50;;
23362;SDS011;11853;48.080;11.960;2022-11-15T07:31:52;5.57;;;4.40;;
23362;SDS011;11853;48.080;11.960;2022-11-15T07:34:18;5.20;;;4.28;;
23362;SDS011;11853;48.080;11.960;2022-11-15T07:36:43;7.80;;;5.32;;
23362;SDS011;11853;48.080;11.960;2022-11-15T07:39:09;4.90;;;4.40;;
23362;SDS011;11853;48.080;11.960;2022-11-15T07:41:37;6.07;;;4.60;;
23362;SDS011;11853;48.080;11.960;2022-11-15T07:44:03;4.20;;;3.80;;
23362;SDS011;11853;48.080;11.960;2022-11-15T07:46:29;5.13;;;4.20;;
23362;SDS011;11853;48.080;11.960;2022-11-15T07:48:56;4.65;;;4.25;;
23362;SDS011;11853;48.080;11.960;2022-11-15T07:51:22;4.95;;;4.07;;
23362;SDS011;11853;48.080;11.960;2022-11-15T07:53:48;4.25;;;3.85;;
23362;SDS011;11853;48.080;11.960;2022-11-15T07:56:13;7.20;;;6.60;;
23362;SDS011;11853;48.080;11.960;2022-11-15T07:58:39;4.78;;;3.90;;
23362;SDS011;11853;48.080;11.960;2022-11-15T08:01:05;4.13;;;3.72;;
23362;SDS011;11853;48.080;11.960;2022-11-15T08:03:33;5.13;;;4.57;;
23362;SDS011;11853;48.080;11.960;2022-11-15T08:05:58;6.43;;;4.45;;
23362;SDS011;11853;48.080;11.960;2022-11-15T08:08:24;5.78;;;5.18;;
23362;SDS011;11853;48.080;11.960;2022-11-15T08:10:50;5.85;;;4.38;;
23362;SDS011;11853;48.080;11.960;2022-11-15T08:13:16;6.90;;;4.57;;
23362;SDS011;11853;48.080;11.960;2022-11-15T08:15:42;4.70;;;4.30;;
23362;SDS011;11853;48.080;11.960;2022-11-15T08:18:15;5.97;;;5.40;;
23362;SDS011;11853;48.080;11.960;2022-11-15T08:20:41;4.90;;;4.47;;
23362;SDS011;11853;48.080;11.960;2022-11-15T08:23:08;4.63;;;4.15;;
23362;SDS011;11853;48.080;11.960;2022-11-15T08:25:36;5.07;;;4.07;;
23362;SDS011;11853;48.080;11.960;2022-11-15T08:28:03;3.83;;;3.53;;
23362;SDS011;11853;48.080;11.960;2022-11-15T08:30:30;4.30;;;3.38;;
23362;SDS011;11853;48.080;11.960;2022-11-15T08:33:01;4.15;;;3.72;;
23362;SDS011;11853;48.080;11.960;2022-11-15T08:35:27;4.28;;;3.20;;
23362;SDS011;11853;48.080;11.960;2022-11-15T08:37:53;3.97;;;3.58;;
23362;SDS011;11853;48.080;11.960;2022-11-15T08:40:19;3.97;;;3.67;;
23362;SDS011;11853;48.080;11.960;2022-11-15T08:42:47;3.92;;;3.53;;
23362;SDS011;11853;48.080;11.960;2022-11-15T08:45:13;4.53;;;3.60;;
23362;SDS011;11853;48.080;11.960;2022-11-15T08:47:39;3.67;;;3.33;;
23362;SDS011;11853;48.080;11.960;2022-11-15T08:50:05;4.30;;;3.17;;
23362;SDS011;11853;48.080;11.960;2022-11-15T08:52:31;3.13;;;2.83;;
23362;SDS011;11853;48.080;11.960;2022-11-15T08:54:57;4.45;;;3.70;;
23362;SDS011;11853;48.080;11.960;2022-11-15T08:57:23;4.03;;;3.65;;
23362;SDS011;11853;48.080;11.960;2022-11-15T08:59:48;3.70;;;3.15;;
23362;SDS011;11853;48.080;11.960;2022-11-15T09:02:15;4.55;;;3.17;;
23362;SDS011;11853;48.080;11.960;2022-11-15T09:04:41;3.42;;;3.13;;
23362;SDS011;11853;48.080;11.960;2022-11-15T09:07:08;3.30;;;3.10;;
23362;SDS011;11853;48.080;11.960;2022-11-15T09:09:36;3.70;;;3.40;;
23362;SDS011;11853;48.080;11.960;2022-11-15T09:12:02;4.30;;;2.92;;
23362;SDS011;11853;48.080;11.960;2022-11-15T09:14:28;3.83;;;3.20;;
23362;SDS011;11853;48.080;11.960;2022-11-15T09:16:54;4.22;;;3.30;;
23362;SDS011;11853;48.080;11.960;2022-11-15T09:19:20;4.95;;;4.07;;
23362;SDS011;11853;48.080;11.960;2022-11-15T09:21:46;6.38;;;3.30;;
23362;SDS011;11853;48.080;11.960;2022-11-15T09:24:12;4.40;;;3.28;;
23362;SDS011;11853;48.080;11.960;2022-11-15T09:26:38;3.63;;;3.33;;
23362;SDS011;11853;48.080;11.960;2022-11-15T09:29:04;3.65;;;3.35;;
23362;SDS011;11853;48.080;11.960;2022-11-15T09:31:30;3.65;;;3.35;;
23362;SDS011;11853;48.080;11.960;2022-11-15T09:33:55;5.05;;;3.60;;
23362;SDS011;11853;48.080;11.960;2022-11-15T09:36:21;3.83;;;3.15;;
23362;SDS011;11853;48.080;11.960;2022-11-15T09:38:47;3.60;;;3.10;;
23362;SDS011;11853;48.080;11.960;2022-11-15T09:49:15;3.97;;;2.83;;
23362;SDS011;11853;48.080;11.960;2022-11-15T09:51:45;4.00;;;3.42;;
23362;SDS011;11853;48.080;11.960;2022-11-15T09:57:18;3.20;;;2.90;;
23362;SDS011;11853;48.080;11.960;2022-11-15T09:59:51;3.05;;;2.85;;
23362;SDS011;11853;48.080;11.960;2022-11-15T10:05:22;3.72;;;3.22;;
23362;SDS011;11853;48.080;11.960;2022-11-15T10:07:54;3.60;;;3.30;;
23362;SDS011;11853;48.080;11.960;2022-11-15T10:10:46;3.42;;;3.13;;
23362;SDS011;11853;48.080;11.960;2022-11-15T10:13:16;4.03;;;3.13;;
23362;SDS011;11853;48.080;11.960;2022-11-15T10:15:47;5.20;;;3.42;;
23362;SDS011;11853;48.080;11.960;2022-11-15T10:18:49;3.28;;;2.97;;
23362;SDS011;11853;48.080;11.960;2022-11-15T10:21:17;4.35;;;3.95;;
23362;SDS011;11853;48.080;11.960;2022-11-15T10:23:45;4.80;;;3.20;;
23362;SDS011;11853;48.080;11.960;2022-11-15T10:26:14;3.50;;;3.20;;
23362;SDS011;11853;48.080;11.960;2022-11-15T10:28:41;3.53;;;3.20;;
23362;SDS011;11853;48.080;11.960;2022-11-15T10:31:27;4.38;;;3.20;;
23362;SDS011;11853;48.080;11.960;2022-11-15T10:34:10;3.90;;;3.60;;
23362;SDS011;11853;48.080;11.960;2022-11-15T10:36:47;3.88;;;3.30;;
23362;SDS011;11853;48.080;11.960;2022-11-15T10:39:19;3.85;;;3.47;;
23362;SDS011;11853;48.080;11.960;2022-11-15T10:41:44;3.80;;;3.50;;
23362;SDS011;11853;48.080;11.960;2022-11-15T10:46:45;4.18;;;3.53;;
23362;SDS011;11853;48.080;11.960;2022-11-15T10:49:20;3.78;;;3.47;;
23362;SDS011;11853;48.080;11.960;2022-11-15T10:51:57;3.72;;;3.42;;
23362;SDS011;11853;48.080;11.960;2022-11-15T10:54:24;6.65;;;3.63;;
23362;SDS011;11853;48.080;11.960;2022-11-15T10:56:54;4.50;;;3.35;;
23362;SDS011;11853;48.080;11.960;2022-11-15T10:59:29;3.90;;;3.60;;
23362;SDS011;11853;48.080;11.960;2022-11-15T11:01:57;3.53;;;3.22;;
23362;SDS011;11853;48.080;11.960;2022-11-15T11:04:23;3.85;;;3.50;;
23362;SDS011;11853;48.080;11.960;2022-11-15T11:06:52;3.78;;;3.10;;
23362;SDS011;11853;48.080;11.960;2022-11-15T11:12:00;3.30;;;3.10;;
23362;SDS011;11853;48.080;11.960;2022-11-15T11:14:31;3.40;;;3.10;;
23362;SDS011;11853;48.080;11.960;2022-11-15T11:25:41;3.17;;;2.92;;
23362;SDS011;11853;48.080;11.960;2022-11-15T11:31:11;3.63;;;2.70;;
23362;SDS011;11853;48.080;11.960;2022-11-15T11:36:49;2.80;;;2.40;;
23362;SDS011;11853;48.080;11.960;2022-11-15T11:48:34;2.75;;;2.55;;
23362;SDS011;11853;48.080;11.960;2022-11-15T11:51:15;2.97;;;2.78;;
23362;SDS011;11853;48.080;11.960;2022-11-15T11:53:47;4.20;;;3.80;;
23362;SDS011;11853;48.080;11.960;2022-11-15T11:56:17;3.72;;;3.17;;
23362;SDS011;11853;48.080;11.960;2022-11-15T11:58:49;3.30;;;2.78;;
23362;SDS011;11853;48.080;11.960;2022-11-15T12:01:25;3.53;;;2.92;;
23362;SDS011;11853;48.080;11.960;2022-11-15T12:09:30;2.63;;;2.42;;
23362;SDS011;11853;48.080;11.960;2022-11-15T12:12:19;2.70;;;2.50;;
23362;SDS011;11853;48.080;11.960;2022-11-15T12:14:55;2.92;;;2.60;;
23362;SDS011;11853;48.080;11.960;2022-11-15T12:17:26;4.18;;;2.60;;
23362;SDS011;11853;48.080;11.960;2022-11-15T12:20:01;4.13;;;2.97;;
23362;SDS011;11853;48.080;11.960;2022-11-15T12:22:41;3.00;;;2.80;;
23362;SDS011;11853;48.080;11.960;2022-11-15T12:30:50;3.17;;;2.78;;
23362;SDS011;11853;48.080;11.960;2022-11-15T12:41:20;2.72;;;2.53;;
23362;SDS011;11853;48.080;11.960;2022-11-15T12:43:48;3.85;;;3.50;;
23362;SDS011;11853;48.080;11.960;2022-11-15T12:51:09;4.50;;;4.10;;
23362;SDS011;11853;48.080;11.960;2022-11-15T12:53:34;4.88;;;4.38;;
23362;SDS011;11853;48.080;11.960;2022-11-15T12:58:42;33.35;;;23.35;;
23362;SDS011;11853;48.080;11.960;2022-11-15T13:01:08;33.53;;;22.20;;
23362;SDS011;11853;48.080;11.960;2022-11-15T13:03:35;10.55;;;8.40;;
23362;SDS011;11853;48.080;11.960;2022-11-15T13:06:36;4.55;;;3.47;;
23362;SDS011;11853;48.080;11.960;2022-11-15T13:09:49;3.50;;;3.20;;
23362;SDS011;11853;48.080;11.960;2022-11-15T13:12:07;6.88;;;6.28;;
23362;SDS011;11853;48.080;11.960;2022-11-15T13:17:46;9.80;;;4.20;;
23362;SDS011;11853;48.080;11.960;2022-11-15T13:20:22;3.78;;;3.47;;
23362;SDS011;11853;48.080;11.960;2022-11-15T13:22:52;4.65;;;3.95;;
23362;SDS011;11853;48.080;11.960;2022-11-15T13:30:56;5.05;;;4.60;;
23362;SDS011;11853;48.080;11.960;2022-11-15T13:33:34;5.65;;;5.15;;
23362;SDS011;11853;48.080;11.960;2022-11-15T13:36:23;5.20;;;4.47;;
23362;SDS011;11853;48.080;11.960;2022-11-15T13:39:00;6.13;;;4.38;;
23362;SDS011;11853;48.080;11.960;2022-11-15T13:41:30;5.45;;;4.35;;
23362;SDS011;11853;48.080;11.960;2022-11-15T13:43:58;6.53;;;5.28;;
23362;SDS011;11853;48.080;11.960;2022-11-15T13:46:30;6.43;;;4.68;;
23362;SDS011;11853;48.080;11.960;2022-11-15T13:49:05;7.35;;;6.57;;
23362;SDS011;11853;48.080;11.960;2022-11-15T13:51:35;5.85;;;5.25;;
23362;SDS011;11853;48.080;11.960;2022-11-15T13:54:03;4.80;;;4.40;;
23362;SDS011;11853;48.080;11.960;2022-11-15T13:56:40;5.82;;;5.32;;
23362;SDS011;11853;48.080;11.960;2022-11-15T14:01:51;4.80;;;4.38;;
23362;SDS011;11853;48.080;11.960;2022-11-15T14:04:20;4.60;;;4.20;;
23362;SDS011;11853;48.080;11.960;2022-11-15T14:06:52;5.68;;;4.65;;
23362;SDS011;11853;48.080;11.960;2022-11-15T14:12:00;6.72;;;5.72;;
23362;SDS011;11853;48.080;11.960;2022-11-15T14:14:28;10.27;;;7.15;;
23362;SDS011;11853;48.080;11.960;2022-11-15T14:16:55;7.72;;;6.88;;
23362;SDS011;11853;48.080;11.960;2022-11-15T14:22:13;9.73;;;7.47;;
23362;SDS011;11853;48.080;11.960;2022-11-15T14:24:46;10.50;;;9.25;;
23362;SDS011;11853;48.080;11.960;2022-11-15T14:27:30;8.18;;;7.05;;
23362;SDS011;11853;48.080;11.960;2022-11-15T14:29:57;10.57;;;9.48;;
23362;SDS011;11853;48.080;11.960;2022-11-15T14:32:27;7.95;;;6.53;;
23362;SDS011;11853;48.080;11.960;2022-11-15T14:34:55;9.73;;;7.35;;
23362;SDS011;11853;48.080;11.960;2022-11-15T14:37:26;7.10;;;6.50;;
23362;SDS011;11853;48.080;11.960;2022-11-15T14:39:53;7.78;;;6.97;;
23362;SDS011;11853;48.080;11.960;2022-11-15T14:42:20;6.20;;;5.60;;
23362;SDS011;11853;48.080;11.960;2022-11-15T14:44:47;7.22;;;6.63;;
23362;SDS011;11853;48.080;11.960;2022-11-15T14:47:14;7.50;;;6.82;;
23362;SDS011;11853;48.080;11.960;2022-11-15T14:49:39;6.90;;;6.30;;
23362;SDS011;11853;48.080;11.960;2022-11-15T14:54:51;8.15;;;7.30;;
23362;SDS011;11853;48.080;11.960;2022-11-15T14:57:16;8.90;;;6.93;;
23362;SDS011;11853;48.080;11.960;2022-11-15T14:59:42;9.30;;;8.40;;
23362;SDS011;11853;48.080;11.960;2022-11-15T15:02:09;9.25;;;7.30;;
23362;SDS011;11853;48.080;11.960;2022-11-15T15:04:42;8.63;;;7.30;;
23362;SDS011;11853;48.080;11.960;2022-11-15T15:07:07;8.20;;;7.13;;
23362;SDS011;11853;48.080;11.960;2022-11-15T15:09:33;7.57;;;6.85;;
23362;SDS011;11853;48.080;11.960;2022-11-15T15:11:58;7.93;;;7.13;;
23362;SDS011;11853;48.080;11.960;2022-11-15T15:14:24;9.77;;;7.65;;
23362;SDS011;11853;48.080;11.960;2022-11-15T15:16:50;12.60;;;7.95;;
23362;SDS011;11853;48.080;11.960;2022-11-15T15:19:15;11.55;;;8.50;;
23362;SDS011;11853;48.080;11.960;2022-11-15T15:21:41;11.93;;;8.48;;
23362;SDS011;11853;48.080;11.960;2022-11-15T15:24:18;11.70;;;8.85;;
23362;SDS011;11853;48.080;11.960;2022-11-15T15:26:44;13.40;;;9.38;;
23362;SDS011;11853;48.080;11.960;2022-11-15T15:29:10;10.15;;;8.57;;
23362;SDS011;11853;48.080;11.960;2022-11-15T15:31:35;9.52;;;7.65;;
23362;SDS011;11853;48.080;11.960;2022-11-15T15:34:01;9.57;;;7.10;;
23362;SDS011;11853;48.080;11.960;2022-11-15T15:36:29;8.95;;;7.25;;
23362;SDS011;11853;48.080;11.960;2022-11-15T15:39:01;7.35;;;6.05;;
23362;SDS011;11853;48.080;11.960;2022-11-15T15:41:26;7.82;;;6.43;;
23362;SDS011;11853;48.080;11.960;2022-11-15T15:43:52;7.80;;;6.25;;
23362;SDS011;11853;48.080;11.960;2022-11-15T15:46:18;8.30;;;5.85;;
23362;SDS011;11853;48.080;11.960;2022-11-15T15:48:45;7.38;;;6.68;;
23362;SDS011;11853;48.080;11.960;2022-11-15T15:51:11;9.57;;;7.00;;
23362;SDS011;11853;48.080;11.960;2022-11-15T15:53:37;10.65;;;8.65;;
23362;SDS011;11853;48.080;11.960;2022-11-15T15:56:03;12.65;;;9.90;;
23362;SDS011;11853;48.080;11.960;2022-11-15T15:58:29;14.52;;;11.45;;
23362;SDS011;11853;48.080;11.960;2022-11-15T16:00:57;18.35;;;14.18;;
23362;SDS011;11853;48.080;11.960;2022-11-15T16:03:22;19.83;;;15.20;;
23362;SDS011;11853;48.080;11.960;2022-11-15T16:05:49;24.13;;;16.58;;
23362;SDS011;11853;48.080;11.960;2022-11-15T16:08:24;24.80;;;18.70;;
23362;SDS011;11853;48.080;11.960;2022-11-15T16:10:52;25.80;;;19.33;;
23362;SDS011;11853;48.080;11.960;2022-11-15T16:13:18;28.75;;;21.80;;
23362;SDS011;11853;48.080;11.960;2022-11-15T16:15:43;30.88;;;22.08;;
23362;SDS011;11853;48.080;11.960;2022-11-15T16:18:17;27.90;;;21.73;;
23362;SDS011;11853;48.080;11.960;2022-11-15T16:20:44;36.83;;;27.67;;
23362;SDS011;11853;48.080;11.960;2022-11-15T16:23:14;37.85;;;28.58;;
23362;SDS011;11853;48.080;11.960;2022-11-15T16:26:01;40.60;;;29.70;;
23362;SDS011;11853;48.080;11.960;2022-11-15T16:28:28;41.75;;;31.13;;
23362;SDS011;11853;48.080;11.960;2022-11-15T16:31:02;36.28;;;28.50;;
23362;SDS011;11853;48.080;11.960;2022-11-15T16:33:30;32.78;;;26.17;;
23362;SDS011;11853;48.080;11.960;2022-11-15T16:35:56;33.72;;;25.23;;
23362;SDS011;11853;48.080;11.960;2022-11-15T16:38:22;29.27;;;23.10;;
23362;SDS011;11853;48.080;11.960;2022-11-15T16:40:47;28.58;;;22.88;;
23362;SDS011;11853;48.080;11.960;2022-11-15T16:43:13;26.73;;;22.48;;
23362;SDS011;11853;48.080;11.960;2022-11-15T16:45:39;24.83;;;20.98;;
23362;SDS011;11853;48.080;11.960;2022-11-15T16:48:04;29.08;;;22.95;;
23362;SDS011;11853;48.080;11.960;2022-11-15T16:50:31;28.50;;;22.23;;